sensor_id;sensor_type;location;lat;lon;timestamp;P1;durP1;ratioP1;P2;durP2;ratioP2
17197;SDS011;8715;51.010;6.812;2023-08-01T00:01:36;963.13;;;881.97;;
17197;SDS011;8715;51.010;6.812;2023-08-01T00:04:22;960.15;;;879.13;;
17197;SDS011;8715;51.010;6.812;2023-08-01T00:07:07;960.58;;;879.50;;
17197;SDS011;8715;51.010;6.812;2023-08-01T00:09:52;957.08;;;877.45;;
17197;SDS011;8715;51.010;6.812;2023-08-01T00:12:37;954.78;;;875.45;;
17197;SDS011;8715;51.010;6.812;2023-08-01T00:15:22;957.20;;;877.97;;
17197;SDS011;8715;51.010;6.812;2023-08-01T00:18:07;957.05;;;877.47;;
17197;SDS011;8715;51.010;6.812;2023-08-01T00:20:53;958.78;;;878.70;;
17197;SDS011;8715;51.010;6.812;2023-08-01T00:23:38;959.78;;;879.78;;
17197;SDS011;8715;51.010;6.812;2023-08-01T00:26:23;960.40;;;880.95;;
17197;SDS011;8715;51.010;6.812;2023-08-01T00:29:08;959.78;;;879.75;;
17197;SDS011;8715;51.010;6.812;2023-08-01T00:31:53;958.90;;;878.40;;
17197;SDS011;8715;51.010;6.812;2023-08-01T00:34:38;960.92;;;880.03;;
17197;SDS011;8715;51.010;6.812;2023-08-01T00:37:24;957.58;;;877.05;;
17197;SDS011;8715;51.010;6.812;2023-08-01T00:40:09;959.67;;;879.30;;
17197;SDS011;8715;51.010;6.812;2023-08-01T00:42:54;960.85;;;880.25;;
17197;SDS011;8715;51.010;6.812;2023-08-01T00:45:40;959.05;;;878.40;;
17197;SDS011;8715;51.010;6.812;2023-08-01T00:48:24;959.70;;;879.42;;
17197;SDS011;8715;51.010;6.812;2023-08-01T00:51:09;959.70;;;878.90;;
17197;SDS011;8715;51.010;6.812;2023-08-01T00:53:57;961.75;;;880.65;;
17197;SDS011;8715;51.010;6.812;2023-08-01T00:56:42;959.80;;;878.90;;
17197;SDS011;8715;51.010;6.812;2023-08-01T00:59:28;960.53;;;880.25;;
17197;SDS011;8715;51.010;6.812;2023-08-01T01:02:13;961.30;;;880.67;;
17197;SDS011;8715;51.010;6.812;2023-08-01T01:04:58;960.58;;;879.75;;
17197;SDS011;8715;51.010;6.812;2023-08-01T01:07:44;959.92;;;879.03;;
17197;SDS011;8715;51.010;6.812;2023-08-01T01:10:31;969.20;;;888.40;;
17197;SDS011;8715;51.010;6.812;2023-08-01T01:13:16;961.95;;;880.97;;
17197;SDS011;8715;51.010;6.812;2023-08-01T01:16:01;960.00;;;879.20;;
17197;SDS011;8715;51.010;6.812;2023-08-01T01:18:47;958.35;;;878.05;;
17197;SDS011;8715;51.010;6.812;2023-08-01T01:21:33;958.55;;;878.88;;
17197;SDS011;8715;51.010;6.812;2023-08-01T01:24:19;956.03;;;876.40;;
17197;SDS011;8715;51.010;6.812;2023-08-01T01:27:06;957.70;;;878.20;;
17197;SDS011;8715;51.010;6.812;2023-08-01T01:29:52;958.70;;;878.90;;
17197;SDS011;8715;51.010;6.812;2023-08-01T01:32:38;954.95;;;876.25;;
17197;SDS011;8715;51.010;6.812;2023-08-01T01:35:23;955.10;;;876.72;;
17197;SDS011;8715;51.010;6.812;2023-08-01T01:38:10;958.33;;;878.63;;
17197;SDS011;8715;51.010;6.812;2023-08-01T01:40:55;956.95;;;877.78;;
17197;SDS011;8715;51.010;6.812;2023-08-01T01:43:40;959.55;;;880.00;;
17197;SDS011;8715;51.010;6.812;2023-08-01T01:46:25;957.50;;;878.63;;
17197;SDS011;8715;51.010;6.812;2023-08-01T01:49:10;952.75;;;874.30;;
17197;SDS011;8715;51.010;6.812;2023-08-01T01:51:55;956.72;;;877.97;;
17197;SDS011;8715;51.010;6.812;2023-08-01T01:54:42;951.72;;;873.05;;
17197;SDS011;8715;51.010;6.812;2023-08-01T01:57:26;955.33;;;876.65;;
17197;SDS011;8715;51.010;6.812;2023-08-01T02:00:12;958.55;;;879.83;;
17197;SDS011;8715;51.010;6.812;2023-08-01T02:02:57;957.53;;;878.83;;
17197;SDS011;8715;51.010;6.812;2023-08-01T02:05:41;954.30;;;875.90;;
17197;SDS011;8715;51.010;6.812;2023-08-01T02:08:26;953.17;;;875.35;;
17197;SDS011;8715;51.010;6.812;2023-08-01T02:11:12;961.92;;;884.28;;
17197;SDS011;8715;51.010;6.812;2023-08-01T02:13:57;953.67;;;876.28;;
17197;SDS011;8715;51.010;6.812;2023-08-01T02:16:42;955.72;;;877.75;;
17197;SDS011;8715;51.010;6.812;2023-08-01T02:19:27;950.30;;;873.10;;
17197;SDS011;8715;51.010;6.812;2023-08-01T02:22:12;950.97;;;873.92;;
17197;SDS011;8715;51.010;6.812;2023-08-01T02:24:57;950.90;;;874.53;;
17197;SDS011;8715;51.010;6.812;2023-08-01T02:27:43;948.92;;;872.55;;
17197;SDS011;8715;51.010;6.812;2023-08-01T02:30:28;948.30;;;872.72;;
17197;SDS011;8715;51.010;6.812;2023-08-01T02:33:13;956.38;;;879.00;;
17197;SDS011;8715;51.010;6.812;2023-08-01T02:35:58;951.55;;;875.13;;
17197;SDS011;8715;51.010;6.812;2023-08-01T02:38:42;950.97;;;874.67;;
17197;SDS011;8715;51.010;6.812;2023-08-01T02:41:27;954.88;;;880.15;;
17197;SDS011;8715;51.010;6.812;2023-08-01T02:44:14;955.65;;;879.05;;
17197;SDS011;8715;51.010;6.812;2023-08-01T02:46:58;949.85;;;873.90;;
17197;SDS011;8715;51.010;6.812;2023-08-01T02:49:43;951.45;;;875.25;;
17197;SDS011;8715;51.010;6.812;2023-08-01T02:52:28;947.63;;;872.08;;
17197;SDS011;8715;51.010;6.812;2023-08-01T02:55:14;958.65;;;882.88;;
17197;SDS011;8715;51.010;6.812;2023-08-01T02:57:59;949.38;;;874.03;;
17197;SDS011;8715;51.010;6.812;2023-08-01T03:00:45;947.85;;;872.63;;
17197;SDS011;8715;51.010;6.812;2023-08-01T03:03:31;945.83;;;870.50;;
17197;SDS011;8715;51.010;6.812;2023-08-01T03:06:16;947.50;;;871.92;;
17197;SDS011;8715;51.010;6.812;2023-08-01T03:09:02;949.65;;;873.55;;
17197;SDS011;8715;51.010;6.812;2023-08-01T03:11:47;945.38;;;870.05;;
17197;SDS011;8715;51.010;6.812;2023-08-01T03:14:32;946.53;;;871.45;;
17197;SDS011;8715;51.010;6.812;2023-08-01T03:17:18;942.05;;;868.20;;
17197;SDS011;8715;51.010;6.812;2023-08-01T03:20:03;944.13;;;870.53;;
17197;SDS011;8715;51.010;6.812;2023-08-01T03:22:49;942.72;;;869.08;;
17197;SDS011;8715;51.010;6.812;2023-08-01T03:25:34;939.17;;;865.85;;
17197;SDS011;8715;51.010;6.812;2023-08-01T03:28:19;944.45;;;870.63;;
17197;SDS011;8715;51.010;6.812;2023-08-01T03:31:04;947.63;;;872.30;;
17197;SDS011;8715;51.010;6.812;2023-08-01T03:33:50;954.50;;;879.33;;
17197;SDS011;8715;51.010;6.812;2023-08-01T03:36:35;947.70;;;872.00;;
17197;SDS011;8715;51.010;6.812;2023-08-01T03:39:20;947.30;;;872.17;;
17197;SDS011;8715;51.010;6.812;2023-08-01T03:42:05;945.83;;;870.97;;
17197;SDS011;8715;51.010;6.812;2023-08-01T03:44:50;944.20;;;870.05;;
17197;SDS011;8715;51.010;6.812;2023-08-01T03:47:35;944.67;;;871.30;;
17197;SDS011;8715;51.010;6.812;2023-08-01T03:50:22;942.40;;;869.03;;
17197;SDS011;8715;51.010;6.812;2023-08-01T03:53:07;946.17;;;872.13;;
17197;SDS011;8715;51.010;6.812;2023-08-01T03:55:52;946.53;;;872.13;;
17197;SDS011;8715;51.010;6.812;2023-08-01T03:58:36;947.22;;;872.42;;
17197;SDS011;8715;51.010;6.812;2023-08-01T04:01:22;949.10;;;874.10;;
17197;SDS011;8715;51.010;6.812;2023-08-01T04:04:07;945.40;;;870.72;;
17197;SDS011;8715;51.010;6.812;2023-08-01T04:06:53;942.83;;;869.03;;
17197;SDS011;8715;51.010;6.812;2023-08-01T04:09:38;954.65;;;881.22;;
17197;SDS011;8715;51.010;6.812;2023-08-01T04:12:23;945.35;;;872.10;;
17197;SDS011;8715;51.010;6.812;2023-08-01T04:15:08;944.00;;;870.67;;
17197;SDS011;8715;51.010;6.812;2023-08-01T04:17:53;946.17;;;872.08;;
17197;SDS011;8715;51.010;6.812;2023-08-01T04:20:38;947.47;;;873.42;;
17197;SDS011;8715;51.010;6.812;2023-08-01T04:23:24;945.05;;;870.55;;
17197;SDS011;8715;51.010;6.812;2023-08-01T04:26:09;948.03;;;873.25;;
17197;SDS011;8715;51.010;6.812;2023-08-01T04:28:54;945.58;;;871.25;;
17197;SDS011;8715;51.010;6.812;2023-08-01T04:31:39;943.15;;;869.50;;
17197;SDS011;8715;51.010;6.812;2023-08-01T04:34:24;939.60;;;866.13;;
17197;SDS011;8715;51.010;6.812;2023-08-01T04:37:09;945.65;;;872.05;;
17197;SDS011;8715;51.010;6.812;2023-08-01T04:39:56;936.65;;;864.70;;
17197;SDS011;8715;51.010;6.812;2023-08-01T04:42:41;938.13;;;866.38;;
17197;SDS011;8715;51.010;6.812;2023-08-01T04:45:25;935.20;;;863.65;;
17197;SDS011;8715;51.010;6.812;2023-08-01T04:48:10;938.42;;;866.67;;
17197;SDS011;8715;51.010;6.812;2023-08-01T04:50:55;935.75;;;864.70;;
17197;SDS011;8715;51.010;6.812;2023-08-01T04:53:40;939.13;;;867.47;;
17197;SDS011;8715;51.010;6.812;2023-08-01T04:56:26;939.20;;;867.70;;
17197;SDS011;8715;51.010;6.812;2023-08-01T04:59:11;934.47;;;863.70;;
17197;SDS011;8715;51.010;6.812;2023-08-01T05:01:56;932.05;;;861.55;;
17197;SDS011;8715;51.010;6.812;2023-08-01T05:04:41;935.30;;;864.72;;
17197;SDS011;8715;51.010;6.812;2023-08-01T05:07:26;932.70;;;861.85;;
17197;SDS011;8715;51.010;6.812;2023-08-01T05:10:10;933.72;;;862.88;;
17197;SDS011;8715;51.010;6.812;2023-08-01T05:12:57;933.35;;;862.45;;
17197;SDS011;8715;51.010;6.812;2023-08-01T05:15:43;935.45;;;865.17;;
17197;SDS011;8715;51.010;6.812;2023-08-01T05:18:28;933.45;;;863.08;;
17197;SDS011;8715;51.010;6.812;2023-08-01T05:21:13;935.22;;;864.90;;
17197;SDS011;8715;51.010;6.812;2023-08-01T05:23:58;938.30;;;866.95;;
17197;SDS011;8715;51.010;6.812;2023-08-01T05:26:43;935.63;;;865.03;;
17197;SDS011;8715;51.010;6.812;2023-08-01T05:29:29;936.25;;;865.08;;
17197;SDS011;8715;51.010;6.812;2023-08-01T05:32:14;940.80;;;868.72;;
17197;SDS011;8715;51.010;6.812;2023-08-01T05:34:59;937.85;;;865.13;;
17197;SDS011;8715;51.010;6.812;2023-08-01T05:37:44;944.28;;;870.67;;
17197;SDS011;8715;51.010;6.812;2023-08-01T05:40:29;941.03;;;867.55;;
17197;SDS011;8715;51.010;6.812;2023-08-01T05:43:14;945.28;;;871.35;;
17197;SDS011;8715;51.010;6.812;2023-08-01T05:46:00;941.05;;;867.80;;
17197;SDS011;8715;51.010;6.812;2023-08-01T05:48:45;938.28;;;866.30;;
17197;SDS011;8715;51.010;6.812;2023-08-01T05:51:30;938.53;;;866.20;;
17197;SDS011;8715;51.010;6.812;2023-08-01T05:54:15;936.97;;;865.05;;
17197;SDS011;8715;51.010;6.812;2023-08-01T05:57:00;936.78;;;865.22;;
17197;SDS011;8715;51.010;6.812;2023-08-01T05:59:45;935.00;;;864.15;;
17197;SDS011;8715;51.010;6.812;2023-08-01T06:02:31;938.22;;;866.85;;
17197;SDS011;8715;51.010;6.812;2023-08-01T06:05:16;945.33;;;874.63;;
17197;SDS011;8715;51.010;6.812;2023-08-01T06:08:01;936.80;;;865.33;;
17197;SDS011;8715;51.010;6.812;2023-08-01T06:10:47;932.55;;;861.35;;
17197;SDS011;8715;51.010;6.812;2023-08-01T06:13:32;936.58;;;865.17;;
17197;SDS011;8715;51.010;6.812;2023-08-01T06:16:17;937.20;;;865.95;;
17197;SDS011;8715;51.010;6.812;2023-08-01T06:19:03;935.20;;;864.10;;
17197;SDS011;8715;51.010;6.812;2023-08-01T06:21:48;935.40;;;864.45;;
17197;SDS011;8715;51.010;6.812;2023-08-01T06:24:33;947.78;;;876.30;;
17197;SDS011;8715;51.010;6.812;2023-08-01T06:27:18;940.33;;;867.53;;
17197;SDS011;8715;51.010;6.812;2023-08-01T06:30:03;942.70;;;870.08;;
17197;SDS011;8715;51.010;6.812;2023-08-01T06:32:48;938.67;;;866.13;;
17197;SDS011;8715;51.010;6.812;2023-08-01T06:35:34;939.58;;;866.90;;
17197;SDS011;8715;51.010;6.812;2023-08-01T06:38:19;942.50;;;869.25;;
17197;SDS011;8715;51.010;6.812;2023-08-01T06:41:04;939.58;;;866.28;;
17197;SDS011;8715;51.010;6.812;2023-08-01T06:43:49;943.95;;;870.05;;
17197;SDS011;8715;51.010;6.812;2023-08-01T06:46:34;944.83;;;871.47;;
17197;SDS011;8715;51.010;6.812;2023-08-01T06:49:19;943.25;;;870.35;;
17197;SDS011;8715;51.010;6.812;2023-08-01T06:52:05;942.00;;;869.08;;
17197;SDS011;8715;51.010;6.812;2023-08-01T06:54:51;939.42;;;866.83;;
17197;SDS011;8715;51.010;6.812;2023-08-01T06:57:36;945.83;;;872.88;;
17197;SDS011;8715;51.010;6.812;2023-08-01T07:00:20;938.67;;;866.25;;
17197;SDS011;8715;51.010;6.812;2023-08-01T07:03:05;950.33;;;878.10;;
17197;SDS011;8715;51.010;6.812;2023-08-01T07:05:51;938.70;;;866.70;;
17197;SDS011;8715;51.010;6.812;2023-08-01T07:08:37;936.22;;;863.92;;
17197;SDS011;8715;51.010;6.812;2023-08-01T07:11:22;946.42;;;874.97;;
17197;SDS011;8715;51.010;6.812;2023-08-01T07:14:07;950.47;;;877.65;;
17197;SDS011;8715;51.010;6.812;2023-08-01T07:16:52;940.22;;;867.58;;
17197;SDS011;8715;51.010;6.812;2023-08-01T07:19:37;943.17;;;870.03;;
17197;SDS011;8715;51.010;6.812;2023-08-01T07:22:22;942.97;;;870.03;;
17197;SDS011;8715;51.010;6.812;2023-08-01T07:25:08;947.20;;;873.67;;
17197;SDS011;8715;51.010;6.812;2023-08-01T07:27:54;947.95;;;873.92;;
17197;SDS011;8715;51.010;6.812;2023-08-01T07:30:39;942.33;;;868.40;;
17197;SDS011;8715;51.010;6.812;2023-08-01T07:33:24;946.70;;;872.28;;
17197;SDS011;8715;51.010;6.812;2023-08-01T07:36:09;948.70;;;873.35;;
17197;SDS011;8715;51.010;6.812;2023-08-01T07:38:54;948.08;;;872.90;;
17197;SDS011;8715;51.010;6.812;2023-08-01T07:41:41;949.45;;;874.08;;
17197;SDS011;8715;51.010;6.812;2023-08-01T07:44:26;948.13;;;872.72;;
17197;SDS011;8715;51.010;6.812;2023-08-01T07:47:12;947.50;;;872.70;;
17197;SDS011;8715;51.010;6.812;2023-08-01T07:49:57;949.92;;;875.20;;
17197;SDS011;8715;51.010;6.812;2023-08-01T07:52:42;946.40;;;871.40;;
17197;SDS011;8715;51.010;6.812;2023-08-01T07:55:27;946.70;;;872.25;;
17197;SDS011;8715;51.010;6.812;2023-08-01T07:58:13;945.40;;;870.92;;
17197;SDS011;8715;51.010;6.812;2023-08-01T08:01:02;944.67;;;870.30;;
17197;SDS011;8715;51.010;6.812;2023-08-01T08:03:47;946.65;;;872.38;;
17197;SDS011;8715;51.010;6.812;2023-08-01T08:06:32;941.17;;;867.35;;
17197;SDS011;8715;51.010;6.812;2023-08-01T08:09:16;944.30;;;870.20;;
17197;SDS011;8715;51.010;6.812;2023-08-01T08:12:02;947.45;;;872.92;;
17197;SDS011;8715;51.010;6.812;2023-08-01T08:14:49;947.90;;;873.20;;
17197;SDS011;8715;51.010;6.812;2023-08-01T08:17:34;946.90;;;871.75;;
17197;SDS011;8715;51.010;6.812;2023-08-01T08:20:19;949.10;;;873.72;;
17197;SDS011;8715;51.010;6.812;2023-08-01T08:23:03;944.88;;;870.35;;
17197;SDS011;8715;51.010;6.812;2023-08-01T08:25:48;946.58;;;871.90;;
17197;SDS011;8715;51.010;6.812;2023-08-01T08:28:34;945.63;;;870.95;;
17197;SDS011;8715;51.010;6.812;2023-08-01T08:31:21;954.97;;;880.75;;
17197;SDS011;8715;51.010;6.812;2023-08-01T08:34:06;947.95;;;873.38;;
17197;SDS011;8715;51.010;6.812;2023-08-01T08:36:51;945.25;;;870.72;;
17197;SDS011;8715;51.010;6.812;2023-08-01T08:39:36;956.72;;;882.03;;
17197;SDS011;8715;51.010;6.812;2023-08-01T08:42:21;947.00;;;871.92;;
17197;SDS011;8715;51.010;6.812;2023-08-01T08:45:06;948.10;;;872.67;;
17197;SDS011;8715;51.010;6.812;2023-08-01T08:47:53;952.20;;;876.08;;
17197;SDS011;8715;51.010;6.812;2023-08-01T08:50:39;951.75;;;875.88;;
17197;SDS011;8715;51.010;6.812;2023-08-01T08:53:25;951.17;;;874.97;;
17197;SDS011;8715;51.010;6.812;2023-08-01T08:56:10;951.17;;;875.15;;
17197;SDS011;8715;51.010;6.812;2023-08-01T08:58:56;949.35;;;873.78;;
17197;SDS011;8715;51.010;6.812;2023-08-01T09:01:41;951.13;;;874.97;;
17197;SDS011;8715;51.010;6.812;2023-08-01T09:04:27;953.42;;;876.63;;
17197;SDS011;8715;51.010;6.812;2023-08-01T09:07:12;954.40;;;877.42;;
17197;SDS011;8715;51.010;6.812;2023-08-01T09:10:00;955.63;;;877.85;;
17197;SDS011;8715;51.010;6.812;2023-08-01T09:12:45;955.10;;;877.17;;
17197;SDS011;8715;51.010;6.812;2023-08-01T09:15:29;954.35;;;877.13;;
17197;SDS011;8715;51.010;6.812;2023-08-01T09:18:16;956.50;;;879.25;;
17197;SDS011;8715;51.010;6.812;2023-08-01T09:21:02;951.90;;;875.33;;
17197;SDS011;8715;51.010;6.812;2023-08-01T09:23:48;953.40;;;876.42;;
17197;SDS011;8715;51.010;6.812;2023-08-01T09:26:33;955.25;;;878.13;;
17197;SDS011;8715;51.010;6.812;2023-08-01T09:29:18;954.90;;;877.40;;
17197;SDS011;8715;51.010;6.812;2023-08-01T09:32:11;956.38;;;879.15;;
17197;SDS011;8715;51.010;6.812;2023-08-01T09:34:58;955.72;;;878.20;;
17197;SDS011;8715;51.010;6.812;2023-08-01T09:37:44;959.40;;;881.40;;
17197;SDS011;8715;51.010;6.812;2023-08-01T09:40:35;955.42;;;876.88;;
17197;SDS011;8715;51.010;6.812;2023-08-01T09:43:20;959.72;;;881.47;;
17197;SDS011;8715;51.010;6.812;2023-08-01T09:46:06;958.25;;;879.60;;
17197;SDS011;8715;51.010;6.812;2023-08-01T09:48:51;962.60;;;883.97;;
17197;SDS011;8715;51.010;6.812;2023-08-01T09:51:45;960.83;;;881.63;;
17197;SDS011;8715;51.010;6.812;2023-08-01T09:54:32;958.35;;;879.78;;
17197;SDS011;8715;51.010;6.812;2023-08-01T09:57:17;958.28;;;879.88;;
17197;SDS011;8715;51.010;6.812;2023-08-01T10:00:04;961.83;;;883.05;;
17197;SDS011;8715;51.010;6.812;2023-08-01T10:02:49;954.67;;;876.78;;
17197;SDS011;8715;51.010;6.812;2023-08-01T10:08:22;956.45;;;879.22;;
17197;SDS011;8715;51.010;6.812;2023-08-01T10:11:08;966.42;;;888.67;;
17197;SDS011;8715;51.010;6.812;2023-08-01T10:13:54;954.25;;;876.40;;
17197;SDS011;8715;51.010;6.812;2023-08-01T10:16:39;959.20;;;880.45;;
17197;SDS011;8715;51.010;6.812;2023-08-01T10:19:25;960.33;;;881.13;;
17197;SDS011;8715;51.010;6.812;2023-08-01T10:22:10;960.45;;;881.17;;
17197;SDS011;8715;51.010;6.812;2023-08-01T10:24:56;959.88;;;880.65;;
17197;SDS011;8715;51.010;6.812;2023-08-01T10:27:42;958.60;;;879.58;;
17197;SDS011;8715;51.010;6.812;2023-08-01T10:30:27;961.10;;;882.08;;
17197;SDS011;8715;51.010;6.812;2023-08-01T10:33:13;962.00;;;882.72;;
17197;SDS011;8715;51.010;6.812;2023-08-01T10:35:59;957.47;;;878.55;;
17197;SDS011;8715;51.010;6.812;2023-08-01T10:38:47;961.97;;;882.53;;
17197;SDS011;8715;51.010;6.812;2023-08-01T10:41:33;963.40;;;883.35;;
17197;SDS011;8715;51.010;6.812;2023-08-01T10:44:19;964.75;;;884.17;;
17197;SDS011;8715;51.010;6.812;2023-08-01T10:47:04;973.00;;;892.58;;
17197;SDS011;8715;51.010;6.812;2023-08-01T10:49:50;972.22;;;892.40;;
17197;SDS011;8715;51.010;6.812;2023-08-01T10:52:35;962.90;;;882.47;;
17197;SDS011;8715;51.010;6.812;2023-08-01T10:55:20;971.13;;;891.40;;
17197;SDS011;8715;51.010;6.812;2023-08-01T10:58:05;965.40;;;884.78;;
17197;SDS011;8715;51.010;6.812;2023-08-01T11:00:58;964.05;;;883.90;;
17197;SDS011;8715;51.010;6.812;2023-08-01T11:03:43;961.90;;;881.95;;
17197;SDS011;8715;51.010;6.812;2023-08-01T11:06:28;962.45;;;882.28;;
17197;SDS011;8715;51.010;6.812;2023-08-01T11:09:17;964.42;;;883.58;;
17197;SDS011;8715;51.010;6.812;2023-08-01T11:12:02;970.10;;;888.45;;
17197;SDS011;8715;51.010;6.812;2023-08-01T11:14:47;965.92;;;884.47;;
17197;SDS011;8715;51.010;6.812;2023-08-01T11:17:34;966.38;;;884.92;;
17197;SDS011;8715;51.010;6.812;2023-08-01T11:20:19;979.00;;;897.08;;
17197;SDS011;8715;51.010;6.812;2023-08-01T11:23:05;971.80;;;889.25;;
17197;SDS011;8715;51.010;6.812;2023-08-01T11:25:50;967.95;;;885.83;;
17197;SDS011;8715;51.010;6.812;2023-08-01T11:28:35;970.95;;;888.42;;
17197;SDS011;8715;51.010;6.812;2023-08-01T11:34:38;968.08;;;886.28;;
17197;SDS011;8715;51.010;6.812;2023-08-01T11:37:25;967.70;;;886.15;;
17197;SDS011;8715;51.010;6.812;2023-08-01T11:40:11;967.00;;;885.15;;
17197;SDS011;8715;51.010;6.812;2023-08-01T11:42:57;967.38;;;885.53;;
17197;SDS011;8715;51.010;6.812;2023-08-01T11:45:49;968.80;;;887.08;;
17197;SDS011;8715;51.010;6.812;2023-08-01T11:48:34;972.65;;;889.70;;
17197;SDS011;8715;51.010;6.812;2023-08-01T11:51:21;971.55;;;888.38;;
17197;SDS011;8715;51.010;6.812;2023-08-01T11:54:06;971.70;;;888.42;;
17197;SDS011;8715;51.010;6.812;2023-08-01T11:56:59;973.50;;;890.58;;
17197;SDS011;8715;51.010;6.812;2023-08-01T11:59:48;968.80;;;886.38;;
17197;SDS011;8715;51.010;6.812;2023-08-01T12:02:33;974.90;;;891.88;;
17197;SDS011;8715;51.010;6.812;2023-08-01T12:05:22;969.33;;;887.03;;
17197;SDS011;8715;51.010;6.812;2023-08-01T12:08:12;968.63;;;886.45;;
17197;SDS011;8715;51.010;6.812;2023-08-01T12:10:57;976.63;;;895.22;;
17197;SDS011;8715;51.010;6.812;2023-08-01T12:13:42;965.85;;;885.05;;
17197;SDS011;8715;51.010;6.812;2023-08-01T12:16:27;964.03;;;883.78;;
17197;SDS011;8715;51.010;6.812;2023-08-01T12:19:16;958.30;;;879.13;;
17197;SDS011;8715;51.010;6.812;2023-08-01T12:22:01;958.10;;;878.63;;
17197;SDS011;8715;51.010;6.812;2023-08-01T12:24:47;958.85;;;879.58;;
17197;SDS011;8715;51.010;6.812;2023-08-01T12:27:32;960.83;;;881.72;;
17197;SDS011;8715;51.010;6.812;2023-08-01T12:30:17;957.58;;;880.03;;
17197;SDS011;8715;51.010;6.812;2023-08-01T12:33:01;956.08;;;878.72;;
17197;SDS011;8715;51.010;6.812;2023-08-01T12:35:47;949.88;;;874.35;;
17197;SDS011;8715;51.010;6.812;2023-08-01T12:38:32;951.35;;;875.72;;
17197;SDS011;8715;51.010;6.812;2023-08-01T12:41:18;947.60;;;872.50;;
17197;SDS011;8715;51.010;6.812;2023-08-01T12:44:03;947.53;;;872.55;;
17197;SDS011;8715;51.010;6.812;2023-08-01T12:46:49;947.10;;;872.38;;
17197;SDS011;8715;51.010;6.812;2023-08-01T12:49:33;947.00;;;872.60;;
17197;SDS011;8715;51.010;6.812;2023-08-01T12:52:22;949.83;;;874.95;;
17197;SDS011;8715;51.010;6.812;2023-08-01T12:55:07;946.85;;;871.67;;
17197;SDS011;8715;51.010;6.812;2023-08-01T12:57:54;958.67;;;883.65;;
17197;SDS011;8715;51.010;6.812;2023-08-01T13:00:39;964.05;;;887.47;;
17197;SDS011;8715;51.010;6.812;2023-08-01T13:03:24;953.65;;;877.20;;
17197;SDS011;8715;51.010;6.812;2023-08-01T13:06:10;953.28;;;876.85;;
17197;SDS011;8715;51.010;6.812;2023-08-01T13:08:55;959.72;;;884.17;;
17197;SDS011;8715;51.010;6.812;2023-08-01T13:11:40;954.67;;;878.55;;
17197;SDS011;8715;51.010;6.812;2023-08-01T13:14:28;950.40;;;874.65;;
17197;SDS011;8715;51.010;6.812;2023-08-01T13:17:13;950.35;;;875.13;;
17197;SDS011;8715;51.010;6.812;2023-08-01T13:19:58;949.88;;;874.72;;
17197;SDS011;8715;51.010;6.812;2023-08-01T13:22:46;948.58;;;873.53;;
17197;SDS011;8715;51.010;6.812;2023-08-01T13:25:31;945.55;;;870.78;;
17197;SDS011;8715;51.010;6.812;2023-08-01T13:28:16;960.47;;;885.30;;
17197;SDS011;8715;51.010;6.812;2023-08-01T13:31:02;946.97;;;871.80;;
17197;SDS011;8715;51.010;6.812;2023-08-01T13:33:47;947.92;;;872.40;;
17197;SDS011;8715;51.010;6.812;2023-08-01T13:36:32;953.08;;;876.85;;
17197;SDS011;8715;51.010;6.812;2023-08-01T13:39:17;949.90;;;873.63;;
17197;SDS011;8715;51.010;6.812;2023-08-01T13:42:02;952.80;;;876.08;;
17197;SDS011;8715;51.010;6.812;2023-08-01T13:44:47;953.58;;;877.15;;
17197;SDS011;8715;51.010;6.812;2023-08-01T13:47:33;957.45;;;881.55;;
17197;SDS011;8715;51.010;6.812;2023-08-01T13:50:18;954.22;;;877.47;;
17197;SDS011;8715;51.010;6.812;2023-08-01T13:53:03;952.20;;;875.60;;
17197;SDS011;8715;51.010;6.812;2023-08-01T13:55:50;965.67;;;888.70;;
17197;SDS011;8715;51.010;6.812;2023-08-01T13:58:37;963.22;;;886.35;;
17197;SDS011;8715;51.010;6.812;2023-08-01T14:01:22;953.10;;;876.05;;
17197;SDS011;8715;51.010;6.812;2023-08-01T14:04:08;951.15;;;874.22;;
17197;SDS011;8715;51.010;6.812;2023-08-01T14:06:53;951.80;;;874.88;;
17197;SDS011;8715;51.010;6.812;2023-08-01T14:09:38;952.65;;;876.15;;
17197;SDS011;8715;51.010;6.812;2023-08-01T14:12:23;952.65;;;876.05;;
17197;SDS011;8715;51.010;6.812;2023-08-01T14:15:10;954.40;;;878.03;;
17197;SDS011;8715;51.010;6.812;2023-08-01T14:17:55;956.38;;;879.60;;
17197;SDS011;8715;51.010;6.812;2023-08-01T14:20:41;950.67;;;874.03;;
17197;SDS011;8715;51.010;6.812;2023-08-01T14:23:27;954.10;;;877.47;;
17197;SDS011;8715;51.010;6.812;2023-08-01T14:26:12;960.10;;;884.15;;
17197;SDS011;8715;51.010;6.812;2023-08-01T14:28:57;956.47;;;879.08;;
17197;SDS011;8715;51.010;6.812;2023-08-01T14:31:42;956.90;;;878.90;;
17197;SDS011;8715;51.010;6.812;2023-08-01T14:34:27;960.72;;;881.85;;
17197;SDS011;8715;51.010;6.812;2023-08-01T14:37:13;963.65;;;883.92;;
17197;SDS011;8715;51.010;6.812;2023-08-01T14:39:58;959.10;;;880.17;;
17197;SDS011;8715;51.010;6.812;2023-08-01T14:42:43;962.47;;;882.85;;
17197;SDS011;8715;51.010;6.812;2023-08-01T14:45:27;961.50;;;881.65;;
17197;SDS011;8715;51.010;6.812;2023-08-01T14:48:12;961.78;;;881.67;;
17197;SDS011;8715;51.010;6.812;2023-08-01T14:50:57;967.17;;;885.85;;
17197;SDS011;8715;51.010;6.812;2023-08-01T14:53:43;968.05;;;886.78;;
17197;SDS011;8715;51.010;6.812;2023-08-01T14:56:28;965.38;;;884.38;;
17197;SDS011;8715;51.010;6.812;2023-08-01T14:59:14;966.10;;;885.17;;
17197;SDS011;8715;51.010;6.812;2023-08-01T15:01:58;965.45;;;884.72;;
17197;SDS011;8715;51.010;6.812;2023-08-01T15:04:43;965.50;;;884.88;;
17197;SDS011;8715;51.010;6.812;2023-08-01T15:07:28;965.40;;;884.97;;
17197;SDS011;8715;51.010;6.812;2023-08-01T15:10:15;964.85;;;884.00;;
17197;SDS011;8715;51.010;6.812;2023-08-01T15:13:00;964.30;;;883.42;;
17197;SDS011;8715;51.010;6.812;2023-08-01T15:15:45;975.03;;;893.97;;
17197;SDS011;8715;51.010;6.812;2023-08-01T15:18:30;967.60;;;886.50;;
17197;SDS011;8715;51.010;6.812;2023-08-01T15:21:15;964.05;;;883.10;;
17197;SDS011;8715;51.010;6.812;2023-08-01T15:24:00;962.72;;;882.22;;
17197;SDS011;8715;51.010;6.812;2023-08-01T15:26:46;966.25;;;885.60;;
17197;SDS011;8715;51.010;6.812;2023-08-01T15:29:31;963.60;;;883.28;;
17197;SDS011;8715;51.010;6.812;2023-08-01T15:32:16;962.67;;;882.35;;
17197;SDS011;8715;51.010;6.812;2023-08-01T15:35:01;963.80;;;883.72;;
17197;SDS011;8715;51.010;6.812;2023-08-01T15:37:47;961.45;;;882.10;;
17197;SDS011;8715;51.010;6.812;2023-08-01T15:40:32;962.47;;;882.60;;
17197;SDS011;8715;51.010;6.812;2023-08-01T15:43:18;962.80;;;882.85;;
17197;SDS011;8715;51.010;6.812;2023-08-01T15:46:03;959.35;;;880.28;;
17197;SDS011;8715;51.010;6.812;2023-08-01T15:48:48;960.67;;;881.50;;
17197;SDS011;8715;51.010;6.812;2023-08-01T15:51:33;959.30;;;880.78;;
17197;SDS011;8715;51.010;6.812;2023-08-01T15:54:19;960.33;;;881.47;;
17197;SDS011;8715;51.010;6.812;2023-08-01T15:57:04;960.83;;;882.30;;
17197;SDS011;8715;51.010;6.812;2023-08-01T15:59:50;958.08;;;879.20;;